Aeroporto :
LOGIN :

Iscrizione | Disclaimer

   EN    FR    IT 

 










Sommario :    VFR   VFR Marginale   IFR   IFR Intensivo   IFR Molto Intensivo
Visibilità : 
Base nubi : 
>= 8 km
>= 3000ft
5 / 8 km
1000 / 3000 ft
1500m / 5 km
500 / 1000 ft
800 / 1500m
200 / 500 ft
< 800m
< 200 ft
Simboli :   Temporali  Nebbia  Neve Forte  Precipitazioni Forti  Vento > 20 kt
SIGMETs :   Varie  Temporali  Ghiacco  Turbolenza  Onda orograficha  Ceneri Vulcaniche






- Altitudine del aeroporto : 124 ft
- Codice IATA : NHT


EGWU - RAF Northolt

ULTIMO METAR :
  • 152250Z AUTO 27017G28KT 1100 // FEW017/// BKN023/// 04/02 Q0999

METARs OBSOLETI :
  • 152244Z 24013G23KT 4000 +TSGS FEW012 BKN030CB 07/04 Q0999 BECMG 7000 -SHRA FEW030CB
  • 152232Z 20010KT 7000 -TSRA SCT030CB BKN050 08/06 Q0998 TEMPO 4000 TSGS RMK WHT TEMPO GRN
  • 152150Z 22003KT 9999 FEW030 BKN050 BKN110 07/06 Q0998 TEMPO 6000 SHRA SCT018CB RMK BLU TEMPO WHT
  • 152121Z 20008KT 9999 SCT045 SCT110 07/05 Q0998 TEMPO 6000 SHRA SCT018CB RMK BLU TEMPO WHT
  • 152050Z 22013G27KT 9999 FEW018CB BKN035 07/05 Q0999 RESHRA TEMPO 6000 SHRA SCT018CB RMK BLU TEMPO WHT
  • 152028Z 23008KT 6000 SHRA SCT018CB BKN035 07/06 Q0999 BECMG 9999 NSW FEW018CB RMK WHT BECMG BLU
  • 152020Z 22008KT 9999 -SHRA SCT028 BKN035 08/05 Q0998 TEMPO 7000 SHRA RMK BLU TEMPO WHT

TAF TAF EGWU
Valido dal 15 a 21 ore il 16 a 15 ore UTC


151924Z 1521/1615 21012KT 9999 FEW040
PROB40
TEMPO 1521/1524 7000 SHRA
PROB30
TEMPO 1521/1524 22015G25KT 4000 +TSRA SCT012 BKN018CB



MetMap, La meteo Aeronautica in un colpo d'occhio ! - Copyright ORBIFLY Dicembre 2007 - Disclaimer

ORBIFLY MET'MAP TEAM :

Programmazione e sviluppo : Alexandra Zaïnal
Concezione : Baudouin d'Aumeries
Aiuto per la programmazione : Marc-Olivier Méhu
Supporto tecnico e logistico : Manuel Goepfert
Aiuto per la traduzione : Arnaldo La Scala

Contatto : metmap@orbifly.com




FONTI E CREDITI :

   NOAA